Huesca, Spain
Current Conditions -  °F | °C
As of 11:00 PM on Thursday 23 Oct 2014 (Local Time) from LEHC Reporting Station
Clear Clear  
Wind Chill: 16°   Ceiling: Unl
Heat Index: 16°   Visibility: 6mi
Dew Point: -4°   Wind: 10mph
Humidity: 25%   Direction: 280°W
Pressure: 30.09"   Gusts: NA
Location:  42.14°N, 0.41°W
Report Text: LEHC 232100Z AUTO 28009KT CAVOK 16/M04 Q1019
Loading
Personal Weather Stations






























Interactive Weather Map
Tropical Storm Tracking
New forecast layout! Learn more

10-Day Weather Forecast

Advertisements
Track Severe Weather on mobile